sensor_id;sensor_type;location;lat;lon;timestamp;pressure;altitude;pressure_sealevel;temperature;humidity
32131;BME280;18639;50.716;7.086;2023-11-21T00:00:48;99711.72;;;9.42;100.00
32131;BME280;18639;50.716;7.086;2023-11-21T00:03:13;99684.13;;;9.32;100.00
32131;BME280;18639;50.716;7.086;2023-11-21T00:05:40;99716.56;;;9.47;100.00
32131;BME280;18639;50.716;7.086;2023-11-21T00:08:07;99695.75;;;9.37;100.00
32131;BME280;18639;50.716;7.086;2023-11-21T00:10:32;99675.38;;;9.21;100.00
32131;BME280;18639;50.716;7.086;2023-11-21T00:12:57;99708.13;;;9.45;100.00
32131;BME280;18639;50.716;7.086;2023-11-21T00:15:23;99706.38;;;9.45;100.00
32131;BME280;18639;50.716;7.086;2023-11-21T00:17:48;99659.50;;;9.15;100.00
32131;BME280;18639;50.716;7.086;2023-11-21T00:20:13;99698.84;;;9.42;100.00
32131;BME280;18639;50.716;7.086;2023-11-21T00:22:38;99717.78;;;9.54;100.00
32131;BME280;18639;50.716;7.086;2023-11-21T00:25:05;99717.88;;;9.52;100.00
32131;BME280;18639;50.716;7.086;2023-11-21T00:27:31;99679.88;;;9.30;100.00
32131;BME280;18639;50.716;7.086;2023-11-21T00:29:56;99660.75;;;9.22;100.00
32131;BME280;18639;50.716;7.086;2023-11-21T00:32:22;99720.13;;;9.57;100.00
32131;BME280;18639;50.716;7.086;2023-11-21T00:34:47;99693.50;;;9.33;100.00
32131;BME280;18639;50.716;7.086;2023-11-21T00:37:12;99711.00;;;9.40;100.00
32131;BME280;18639;50.716;7.086;2023-11-21T00:39:37;99715.97;;;9.43;100.00
32131;BME280;18639;50.716;7.086;2023-11-21T00:42:03;99698.47;;;9.23;100.00
32131;BME280;18639;50.716;7.086;2023-11-21T00:44:30;99680.75;;;9.18;100.00
32131;BME280;18639;50.716;7.086;2023-11-21T00:46:55;99679.50;;;9.24;100.00
32131;BME280;18639;50.716;7.086;2023-11-21T00:49:20;99730.78;;;9.52;100.00
32131;BME280;18639;50.716;7.086;2023-11-21T00:51:46;99731.94;;;9.48;100.00
32131;BME280;18639;50.716;7.086;2023-11-21T00:54:11;99725.44;;;9.43;100.00
32131;BME280;18639;50.716;7.086;2023-11-21T00:56:36;99738.66;;;9.51;100.00
32131;BME280;18639;50.716;7.086;2023-11-21T00:59:02;99718.88;;;9.39;100.00
32131;BME280;18639;50.716;7.086;2023-11-21T01:01:30;99740.59;;;9.47;100.00
32131;BME280;18639;50.716;7.086;2023-11-21T01:03:55;99746.69;;;9.46;100.00
32131;BME280;18639;50.716;7.086;2023-11-21T01:06:20;99710.22;;;9.27;100.00
32131;BME280;18639;50.716;7.086;2023-11-21T01:08:45;99742.91;;;9.39;100.00
32131;BME280;18639;50.716;7.086;2023-11-21T01:11:12;99731.56;;;9.29;100.00
32131;BME280;18639;50.716;7.086;2023-11-21T01:13:38;99761.31;;;9.46;100.00
32131;BME280;18639;50.716;7.086;2023-11-21T01:16:04;99719.53;;;9.17;100.00
32131;BME280;18639;50.716;7.086;2023-11-21T01:18:31;99750.53;;;9.28;100.00
32131;BME280;18639;50.716;7.086;2023-11-21T01:20:56;99764.34;;;9.40;100.00
32131;BME280;18639;50.716;7.086;2023-11-21T01:23:22;99754.47;;;9.34;100.00
32131;BME280;18639;50.716;7.086;2023-11-21T01:25:47;99765.06;;;9.42;100.00
32131;BME280;18639;50.716;7.086;2023-11-21T01:28:13;99769.19;;;9.44;100.00
32131;BME280;18639;50.716;7.086;2023-11-21T01:30:38;99758.25;;;9.41;100.00
32131;BME280;18639;50.716;7.086;2023-11-21T01:33:04;99749.06;;;9.37;100.00
32131;BME280;18639;50.716;7.086;2023-11-21T01:35:29;99780.41;;;9.56;100.00
32131;BME280;18639;50.716;7.086;2023-11-21T01:37:55;99745.78;;;9.35;100.00
32131;BME280;18639;50.716;7.086;2023-11-21T01:40:20;99765.47;;;9.48;100.00
32131;BME280;18639;50.716;7.086;2023-11-21T01:42:46;99787.31;;;9.55;100.00
32131;BME280;18639;50.716;7.086;2023-11-21T01:45:12;99776.38;;;9.52;100.00
32131;BME280;18639;50.716;7.086;2023-11-21T01:47:38;99744.25;;;9.32;100.00
32131;BME280;18639;50.716;7.086;2023-11-21T01:50:07;99759.28;;;9.38;100.00
32131;BME280;18639;50.716;7.086;2023-11-21T01:52:34;99784.94;;;9.52;100.00
32131;BME280;18639;50.716;7.086;2023-11-21T01:55:00;99781.66;;;9.50;100.00
32131;BME280;18639;50.716;7.086;2023-11-21T01:57:26;99778.56;;;9.45;100.00
32131;BME280;18639;50.716;7.086;2023-11-21T01:59:54;99762.78;;;9.37;100.00
32131;BME280;18639;50.716;7.086;2023-11-21T02:02:19;99793.41;;;9.54;100.00
32131;BME280;18639;50.716;7.086;2023-11-21T02:04:44;99773.84;;;9.39;100.00
32131;BME280;18639;50.716;7.086;2023-11-21T02:07:10;99770.31;;;9.40;100.00
32131;BME280;18639;50.716;7.086;2023-11-21T02:09:35;99736.00;;;9.14;100.00
32131;BME280;18639;50.716;7.086;2023-11-21T02:12:03;99763.22;;;9.31;100.00
32131;BME280;18639;50.716;7.086;2023-11-21T02:14:30;99812.16;;;9.56;100.00
32131;BME280;18639;50.716;7.086;2023-11-21T02:16:56;99788.34;;;9.40;100.00
32131;BME280;18639;50.716;7.086;2023-11-21T02:19:22;99814.97;;;9.53;100.00
32131;BME280;18639;50.716;7.086;2023-11-21T02:21:51;99818.97;;;9.57;100.00
32131;BME280;18639;50.716;7.086;2023-11-21T02:24:23;99806.72;;;9.48;100.00
32131;BME280;18639;50.716;7.086;2023-11-21T02:26:49;99828.59;;;9.55;100.00
32131;BME280;18639;50.716;7.086;2023-11-21T02:29:18;99827.34;;;9.48;100.00
32131;BME280;18639;50.716;7.086;2023-11-21T02:31:52;99824.69;;;9.50;100.00
32131;BME280;18639;50.716;7.086;2023-11-21T02:34:17;99814.69;;;9.45;100.00
32131;BME280;18639;50.716;7.086;2023-11-21T02:36:44;99825.78;;;9.46;100.00
32131;BME280;18639;50.716;7.086;2023-11-21T02:39:10;99771.25;;;9.14;100.00
32131;BME280;18639;50.716;7.086;2023-11-21T02:41:39;99820.25;;;9.39;100.00
32131;BME280;18639;50.716;7.086;2023-11-21T02:44:05;99831.41;;;9.40;100.00
32131;BME280;18639;50.716;7.086;2023-11-21T02:46:31;99811.50;;;9.29;100.00
32131;BME280;18639;50.716;7.086;2023-11-21T02:48:57;99832.91;;;9.42;100.00
32131;BME280;18639;50.716;7.086;2023-11-21T02:51:23;99848.22;;;9.45;100.00
32131;BME280;18639;50.716;7.086;2023-11-21T02:53:48;99815.41;;;9.22;100.00
32131;BME280;18639;50.716;7.086;2023-11-21T02:56:15;99848.09;;;9.47;100.00
32131;BME280;18639;50.716;7.086;2023-11-21T02:58:41;99849.66;;;9.49;100.00
32131;BME280;18639;50.716;7.086;2023-11-21T03:01:08;99777.47;;;9.11;100.00
32131;BME280;18639;50.716;7.086;2023-11-21T03:03:33;99828.19;;;9.36;100.00
32131;BME280;18639;50.716;7.086;2023-11-21T03:05:58;99833.84;;;9.41;100.00
32131;BME280;18639;50.716;7.086;2023-11-21T03:08:24;99838.50;;;9.49;100.00
32131;BME280;18639;50.716;7.086;2023-11-21T03:10:49;99824.91;;;9.34;100.00
32131;BME280;18639;50.716;7.086;2023-11-21T03:13:14;99827.16;;;9.39;100.00
32131;BME280;18639;50.716;7.086;2023-11-21T03:15:39;99815.81;;;9.28;100.00
32131;BME280;18639;50.716;7.086;2023-11-21T03:18:05;99824.91;;;9.34;100.00
32131;BME280;18639;50.716;7.086;2023-11-21T03:20:30;99835.91;;;9.36;100.00
32131;BME280;18639;50.716;7.086;2023-11-21T03:22:55;99841.81;;;9.38;100.00
32131;BME280;18639;50.716;7.086;2023-11-21T03:25:21;99846.34;;;9.35;100.00
32131;BME280;18639;50.716;7.086;2023-11-21T03:27:49;99846.84;;;9.27;100.00
32131;BME280;18639;50.716;7.086;2023-11-21T03:30:14;99849.44;;;9.27;100.00
32131;BME280;18639;50.716;7.086;2023-11-21T03:32:40;99847.25;;;9.21;100.00
32131;BME280;18639;50.716;7.086;2023-11-21T03:35:05;99850.25;;;9.15;100.00
32131;BME280;18639;50.716;7.086;2023-11-21T03:37:31;99865.31;;;9.21;100.00
32131;BME280;18639;50.716;7.086;2023-11-21T03:39:56;99877.19;;;9.23;100.00
32131;BME280;18639;50.716;7.086;2023-11-21T03:42:21;99814.84;;;8.79;100.00
32131;BME280;18639;50.716;7.086;2023-11-21T03:44:47;99869.94;;;9.16;100.00
32131;BME280;18639;50.716;7.086;2023-11-21T03:47:12;99897.69;;;9.25;100.00
32131;BME280;18639;50.716;7.086;2023-11-21T03:49:38;99892.34;;;9.28;100.00
32131;BME280;18639;50.716;7.086;2023-11-21T03:52:03;99882.75;;;9.17;100.00
32131;BME280;18639;50.716;7.086;2023-11-21T03:54:29;99889.44;;;9.20;100.00
32131;BME280;18639;50.716;7.086;2023-11-21T03:56:54;99893.16;;;9.16;100.00
32131;BME280;18639;50.716;7.086;2023-11-21T03:59:19;99873.75;;;9.10;100.00
32131;BME280;18639;50.716;7.086;2023-11-21T04:01:44;99894.72;;;9.18;100.00
32131;BME280;18639;50.716;7.086;2023-11-21T04:04:10;99881.69;;;9.07;100.00
32131;BME280;18639;50.716;7.086;2023-11-21T04:06:35;99849.41;;;8.89;100.00
32131;BME280;18639;50.716;7.086;2023-11-21T04:09:02;99873.31;;;9.04;100.00
32131;BME280;18639;50.716;7.086;2023-11-21T04:11:29;99884.78;;;9.12;100.00
32131;BME280;18639;50.716;7.086;2023-11-21T04:13:55;99901.81;;;9.15;100.00
32131;BME280;18639;50.716;7.086;2023-11-21T04:16:20;99915.72;;;9.25;100.00
32131;BME280;18639;50.716;7.086;2023-11-21T04:18:45;99923.47;;;9.25;100.00
32131;BME280;18639;50.716;7.086;2023-11-21T04:21:10;99912.75;;;9.18;100.00
32131;BME280;18639;50.716;7.086;2023-11-21T04:23:36;99913.75;;;9.16;100.00
32131;BME280;18639;50.716;7.086;2023-11-21T04:26:01;99920.38;;;9.20;100.00
32131;BME280;18639;50.716;7.086;2023-11-21T04:28:27;99931.00;;;9.28;100.00
32131;BME280;18639;50.716;7.086;2023-11-21T04:30:53;99947.41;;;9.27;100.00
32131;BME280;18639;50.716;7.086;2023-11-21T04:33:18;99929.44;;;9.13;100.00
32131;BME280;18639;50.716;7.086;2023-11-21T04:35:43;99941.59;;;9.11;100.00
32131;BME280;18639;50.716;7.086;2023-11-21T04:38:09;99943.03;;;9.15;100.00
32131;BME280;18639;50.716;7.086;2023-11-21T04:40:34;99885.56;;;8.87;100.00
32131;BME280;18639;50.716;7.086;2023-11-21T04:42:59;99900.19;;;8.87;100.00
32131;BME280;18639;50.716;7.086;2023-11-21T04:45:25;99848.31;;;8.66;100.00
32131;BME280;18639;50.716;7.086;2023-11-21T04:47:50;99872.84;;;8.72;100.00
32131;BME280;18639;50.716;7.086;2023-11-21T04:50:16;99931.78;;;9.03;100.00
32131;BME280;18639;50.716;7.086;2023-11-21T04:52:41;99868.75;;;8.82;100.00
32131;BME280;18639;50.716;7.086;2023-11-21T04:55:07;99939.75;;;9.13;100.00
32131;BME280;18639;50.716;7.086;2023-11-21T04:57:35;99959.84;;;9.20;100.00
32131;BME280;18639;50.716;7.086;2023-11-21T05:00:00;99900.41;;;8.84;100.00
32131;BME280;18639;50.716;7.086;2023-11-21T05:02:26;99956.13;;;9.12;100.00
32131;BME280;18639;50.716;7.086;2023-11-21T05:04:51;99914.09;;;8.84;100.00
32131;BME280;18639;50.716;7.086;2023-11-21T05:07:16;99965.94;;;9.19;100.00
32131;BME280;18639;50.716;7.086;2023-11-21T05:09:44;99945.09;;;9.10;100.00
32131;BME280;18639;50.716;7.086;2023-11-21T05:12:11;99931.06;;;9.01;100.00
32131;BME280;18639;50.716;7.086;2023-11-21T05:14:37;99964.94;;;9.22;100.00
32131;BME280;18639;50.716;7.086;2023-11-21T05:17:02;99943.25;;;9.12;100.00
32131;BME280;18639;50.716;7.086;2023-11-21T05:19:29;99967.41;;;9.23;100.00
32131;BME280;18639;50.716;7.086;2023-11-21T05:21:54;99969.25;;;9.21;100.00
32131;BME280;18639;50.716;7.086;2023-11-21T05:24:20;99953.56;;;9.12;100.00
32131;BME280;18639;50.716;7.086;2023-11-21T05:26:45;99956.97;;;9.12;100.00
32131;BME280;18639;50.716;7.086;2023-11-21T05:29:10;99943.13;;;9.01;100.00
32131;BME280;18639;50.716;7.086;2023-11-21T05:31:36;99959.31;;;9.03;100.00
32131;BME280;18639;50.716;7.086;2023-11-21T05:34:01;99981.63;;;9.16;100.00
32131;BME280;18639;50.716;7.086;2023-11-21T05:36:27;99956.19;;;8.98;100.00
32131;BME280;18639;50.716;7.086;2023-11-21T05:38:52;99986.97;;;9.13;100.00
32131;BME280;18639;50.716;7.086;2023-11-21T05:41:18;99979.09;;;9.02;100.00
32131;BME280;18639;50.716;7.086;2023-11-21T05:43:43;99970.09;;;8.95;100.00
32131;BME280;18639;50.716;7.086;2023-11-21T05:46:09;99991.88;;;9.04;100.00
32131;BME280;18639;50.716;7.086;2023-11-21T05:51:56;99995.78;;;8.97;100.00
32131;BME280;18639;50.716;7.086;2023-11-21T05:54:21;100015.38;;;8.99;100.00
32131;BME280;18639;50.716;7.086;2023-11-21T05:56:47;99979.44;;;8.83;100.00
32131;BME280;18639;50.716;7.086;2023-11-21T05:59:13;99954.03;;;8.65;100.00
32131;BME280;18639;50.716;7.086;2023-11-21T06:01:39;100000.44;;;8.77;100.00
32131;BME280;18639;50.716;7.086;2023-11-21T06:04:05;100021.72;;;8.94;100.00
32131;BME280;18639;50.716;7.086;2023-11-21T06:09:52;100009.22;;;8.87;100.00
32131;BME280;18639;50.716;7.086;2023-11-21T06:12:17;100032.03;;;8.94;100.00
32131;BME280;18639;50.716;7.086;2023-11-21T06:17:32;100028.53;;;8.95;100.00
32131;BME280;18639;50.716;7.086;2023-11-21T06:20:01;100036.81;;;9.00;100.00
32131;BME280;18639;50.716;7.086;2023-11-21T06:22:28;100029.53;;;8.92;100.00
32131;BME280;18639;50.716;7.086;2023-11-21T06:24:55;100027.91;;;8.91;100.00
32131;BME280;18639;50.716;7.086;2023-11-21T06:27:21;100034.31;;;8.98;100.00
32131;BME280;18639;50.716;7.086;2023-11-21T06:29:46;99944.03;;;8.46;100.00
32131;BME280;18639;50.716;7.086;2023-11-21T06:32:12;100042.59;;;9.03;100.00
32131;BME280;18639;50.716;7.086;2023-11-21T06:34:37;100032.78;;;8.96;100.00
32131;BME280;18639;50.716;7.086;2023-11-21T06:37:03;100054.56;;;9.04;100.00
32131;BME280;18639;50.716;7.086;2023-11-21T06:39:28;100035.34;;;8.96;100.00
32131;BME280;18639;50.716;7.086;2023-11-21T06:41:53;100052.09;;;9.03;100.00
32131;BME280;18639;50.716;7.086;2023-11-21T06:44:19;100066.63;;;9.04;100.00
32131;BME280;18639;50.716;7.086;2023-11-21T06:46:45;100067.66;;;9.01;100.00
32131;BME280;18639;50.716;7.086;2023-11-21T06:49:10;100056.16;;;8.93;100.00
32131;BME280;18639;50.716;7.086;2023-11-21T06:51:36;100025.09;;;8.67;100.00
32131;BME280;18639;50.716;7.086;2023-11-21T06:54:01;100032.47;;;8.73;100.00
32131;BME280;18639;50.716;7.086;2023-11-21T06:56:26;100024.53;;;8.76;100.00
32131;BME280;18639;50.716;7.086;2023-11-21T06:58:52;100039.59;;;8.82;100.00
32131;BME280;18639;50.716;7.086;2023-11-21T07:01:20;100045.25;;;8.75;100.00
32131;BME280;18639;50.716;7.086;2023-11-21T07:03:45;100040.19;;;8.73;100.00
32131;BME280;18639;50.716;7.086;2023-11-21T07:06:11;100099.81;;;9.08;100.00
32131;BME280;18639;50.716;7.086;2023-11-21T07:08:36;100080.06;;;8.95;100.00
32131;BME280;18639;50.716;7.086;2023-11-21T07:11:02;100099.94;;;9.07;100.00
32131;BME280;18639;50.716;7.086;2023-11-21T07:13:28;100079.53;;;8.90;100.00
32131;BME280;18639;50.716;7.086;2023-11-21T07:15:53;100062.09;;;8.80;100.00
32131;BME280;18639;50.716;7.086;2023-11-21T07:18:19;100081.28;;;8.89;100.00
32131;BME280;18639;50.716;7.086;2023-11-21T07:20:44;100061.13;;;8.81;100.00
32131;BME280;18639;50.716;7.086;2023-11-21T07:23:10;100114.00;;;9.15;100.00
32131;BME280;18639;50.716;7.086;2023-11-21T07:25:35;100101.78;;;9.05;100.00
32131;BME280;18639;50.716;7.086;2023-11-21T07:28:01;100130.91;;;9.19;100.00
32131;BME280;18639;50.716;7.086;2023-11-21T07:30:26;100141.88;;;9.23;100.00
32131;BME280;18639;50.716;7.086;2023-11-21T07:32:52;100096.00;;;8.87;100.00
32131;BME280;18639;50.716;7.086;2023-11-21T07:35:17;100103.19;;;8.82;100.00
32131;BME280;18639;50.716;7.086;2023-11-21T07:37:43;100098.31;;;8.77;100.00
32131;BME280;18639;50.716;7.086;2023-11-21T07:40:08;100135.03;;;8.95;100.00
32131;BME280;18639;50.716;7.086;2023-11-21T07:42:35;100173.00;;;9.20;100.00
32131;BME280;18639;50.716;7.086;2023-11-21T07:45:00;100155.72;;;9.08;100.00
32131;BME280;18639;50.716;7.086;2023-11-21T07:47:27;100155.81;;;9.06;100.00
32131;BME280;18639;50.716;7.086;2023-11-21T07:49:53;100123.53;;;8.86;100.00
32131;BME280;18639;50.716;7.086;2023-11-21T07:52:20;100177.72;;;9.13;100.00
32131;BME280;18639;50.716;7.086;2023-11-21T07:54:46;100173.19;;;9.17;100.00
32131;BME280;18639;50.716;7.086;2023-11-21T07:57:11;100180.94;;;9.17;100.00
32131;BME280;18639;50.716;7.086;2023-11-21T07:59:38;100184.88;;;9.22;100.00
32131;BME280;18639;50.716;7.086;2023-11-21T08:02:04;100179.19;;;9.17;100.00
32131;BME280;18639;50.716;7.086;2023-11-21T08:04:29;100185.44;;;9.27;100.00
32131;BME280;18639;50.716;7.086;2023-11-21T08:06:55;100166.59;;;9.13;100.00
32131;BME280;18639;50.716;7.086;2023-11-21T08:09:20;100186.06;;;9.31;100.00
32131;BME280;18639;50.716;7.086;2023-11-21T08:11:49;100135.47;;;9.02;100.00
32131;BME280;18639;50.716;7.086;2023-11-21T08:14:14;100186.88;;;9.32;100.00
32131;BME280;18639;50.716;7.086;2023-11-21T08:16:40;100176.13;;;9.25;100.00
32131;BME280;18639;50.716;7.086;2023-11-21T08:19:05;100200.03;;;9.41;100.00
32131;BME280;18639;50.716;7.086;2023-11-21T08:21:31;100165.72;;;9.26;100.00
32131;BME280;18639;50.716;7.086;2023-11-21T08:23:56;100194.50;;;9.47;100.00
32131;BME280;18639;50.716;7.086;2023-11-21T08:26:22;100213.00;;;9.54;100.00
32131;BME280;18639;50.716;7.086;2023-11-21T08:28:47;100209.97;;;9.61;100.00
32131;BME280;18639;50.716;7.086;2023-11-21T08:31:13;100199.91;;;9.57;100.00
32131;BME280;18639;50.716;7.086;2023-11-21T08:33:38;100215.53;;;9.68;100.00
32131;BME280;18639;50.716;7.086;2023-11-21T08:36:10;100199.63;;;9.61;100.00
32131;BME280;18639;50.716;7.086;2023-11-21T08:38:37;100224.47;;;9.77;100.00
32131;BME280;18639;50.716;7.086;2023-11-21T08:41:06;100176.28;;;9.50;100.00
32131;BME280;18639;50.716;7.086;2023-11-21T08:43:36;100234.94;;;9.88;100.00
32131;BME280;18639;50.716;7.086;2023-11-21T08:46:07;100180.09;;;9.57;100.00
32131;BME280;18639;50.716;7.086;2023-11-21T08:48:35;100181.22;;;9.53;100.00
32131;BME280;18639;50.716;7.086;2023-11-21T08:51:01;100195.72;;;9.68;100.00
32131;BME280;18639;50.716;7.086;2023-11-21T08:53:26;100253.03;;;10.00;100.00
32131;BME280;18639;50.716;7.086;2023-11-21T08:55:52;100201.19;;;9.64;100.00
32131;BME280;18639;50.716;7.086;2023-11-21T08:58:19;100243.69;;;9.85;100.00
32131;BME280;18639;50.716;7.086;2023-11-21T09:00:44;100238.28;;;9.76;100.00
32131;BME280;18639;50.716;7.086;2023-11-21T09:03:11;100263.22;;;9.89;100.00
32131;BME280;18639;50.716;7.086;2023-11-21T09:05:40;100267.84;;;9.84;100.00
32131;BME280;18639;50.716;7.086;2023-11-21T09:08:05;100275.50;;;9.86;100.00
32131;BME280;18639;50.716;7.086;2023-11-21T09:10:32;100249.75;;;9.71;100.00
32131;BME280;18639;50.716;7.086;2023-11-21T09:12:58;100267.50;;;9.76;100.00
32131;BME280;18639;50.716;7.086;2023-11-21T09:15:24;100251.78;;;9.66;100.00
32131;BME280;18639;50.716;7.086;2023-11-21T09:17:50;100263.56;;;9.70;100.00
32131;BME280;18639;50.716;7.086;2023-11-21T09:20:15;100239.81;;;9.51;100.00
32131;BME280;18639;50.716;7.086;2023-11-21T09:22:41;100281.63;;;9.70;100.00
32131;BME280;18639;50.716;7.086;2023-11-21T09:25:07;100291.56;;;9.77;100.00
32131;BME280;18639;50.716;7.086;2023-11-21T09:27:33;100258.06;;;9.48;100.00
32131;BME280;18639;50.716;7.086;2023-11-21T09:29:59;100270.94;;;9.62;100.00
32131;BME280;18639;50.716;7.086;2023-11-21T09:32:24;100309.50;;;9.78;100.00
32131;BME280;18639;50.716;7.086;2023-11-21T09:34:50;100272.88;;;9.59;100.00
32131;BME280;18639;50.716;7.086;2023-11-21T09:37:16;100312.63;;;9.83;100.00
32131;BME280;18639;50.716;7.086;2023-11-21T09:39:41;100310.72;;;9.72;100.00
32131;BME280;18639;50.716;7.086;2023-11-21T09:44:41;100319.28;;;9.87;100.00
32131;BME280;18639;50.716;7.086;2023-11-21T09:47:10;100307.75;;;9.79;100.00
32131;BME280;18639;50.716;7.086;2023-11-21T09:49:39;100311.63;;;9.86;100.00
32131;BME280;18639;50.716;7.086;2023-11-21T09:52:07;100306.47;;;9.86;100.00
32131;BME280;18639;50.716;7.086;2023-11-21T09:54:34;100314.75;;;9.91;100.00
32131;BME280;18639;50.716;7.086;2023-11-21T09:57:00;100276.84;;;9.64;100.00
32131;BME280;18639;50.716;7.086;2023-11-21T09:59:30;100307.84;;;9.91;100.00
32131;BME280;18639;50.716;7.086;2023-11-21T10:01:56;100296.69;;;9.91;100.00
32131;BME280;18639;50.716;7.086;2023-11-21T10:04:23;100330.03;;;10.08;100.00
32131;BME280;18639;50.716;7.086;2023-11-21T10:06:50;100270.72;;;9.80;100.00
32131;BME280;18639;50.716;7.086;2023-11-21T10:09:15;100319.31;;;10.14;100.00
32131;BME280;18639;50.716;7.086;2023-11-21T10:11:41;100324.75;;;10.24;100.00
32131;BME280;18639;50.716;7.086;2023-11-21T10:14:10;100310.38;;;10.20;100.00
32131;BME280;18639;50.716;7.086;2023-11-21T10:16:38;100317.53;;;10.29;100.00
32131;BME280;18639;50.716;7.086;2023-11-21T10:19:04;100324.31;;;10.44;100.00
32131;BME280;18639;50.716;7.086;2023-11-21T10:21:32;100301.13;;;10.30;100.00
32131;BME280;18639;50.716;7.086;2023-11-21T10:23:58;100327.22;;;10.52;100.00
32131;BME280;18639;50.716;7.086;2023-11-21T10:26:23;100341.16;;;10.49;100.00
32131;BME280;18639;50.716;7.086;2023-11-21T10:28:57;100341.03;;;10.38;100.00
32131;BME280;18639;50.716;7.086;2023-11-21T10:31:23;100334.00;;;10.40;100.00
32131;BME280;18639;50.716;7.086;2023-11-21T10:33:51;100338.28;;;10.54;100.00
32131;BME280;18639;50.716;7.086;2023-11-21T10:36:27;100323.28;;;10.46;100.00
32131;BME280;18639;50.716;7.086;2023-11-21T10:38:53;100325.34;;;10.41;100.00
32131;BME280;18639;50.716;7.086;2023-11-21T10:41:20;100340.25;;;10.50;100.00
32131;BME280;18639;50.716;7.086;2023-11-21T10:43:45;100325.72;;;10.35;100.00
32131;BME280;18639;50.716;7.086;2023-11-21T10:46:10;100329.69;;;10.41;100.00
32131;BME280;18639;50.716;7.086;2023-11-21T10:48:36;100317.88;;;10.37;100.00
32131;BME280;18639;50.716;7.086;2023-11-21T10:51:06;100345.63;;;10.60;100.00
32131;BME280;18639;50.716;7.086;2023-11-21T10:53:32;100337.28;;;10.57;100.00
32131;BME280;18639;50.716;7.086;2023-11-21T10:56:02;100349.59;;;10.66;100.00
32131;BME280;18639;50.716;7.086;2023-11-21T10:58:30;100295.56;;;10.36;100.00
32131;BME280;18639;50.716;7.086;2023-11-21T11:00:57;100311.28;;;10.45;100.00
32131;BME280;18639;50.716;7.086;2023-11-21T11:03:23;100347.31;;;10.61;100.00
32131;BME280;18639;50.716;7.086;2023-11-21T11:05:49;100347.78;;;10.53;100.00
32131;BME280;18639;50.716;7.086;2023-11-21T11:08:17;100352.31;;;10.50;100.00
32131;BME280;18639;50.716;7.086;2023-11-21T11:10:45;100318.47;;;10.28;100.00
32131;BME280;18639;50.716;7.086;2023-11-21T11:13:13;100277.63;;;9.93;100.00
32131;BME280;18639;50.716;7.086;2023-11-21T11:15:40;100314.97;;;10.14;100.00
32131;BME280;18639;50.716;7.086;2023-11-21T11:18:06;100317.81;;;10.10;100.00
32131;BME280;18639;50.716;7.086;2023-11-21T11:20:37;100350.50;;;10.25;100.00
32131;BME280;18639;50.716;7.086;2023-11-21T11:29:23;100364.56;;;10.34;100.00
32131;BME280;18639;50.716;7.086;2023-11-21T11:34:41;100350.34;;;10.41;100.00
32131;BME280;18639;50.716;7.086;2023-11-21T11:37:09;100330.25;;;10.32;100.00
32131;BME280;18639;50.716;7.086;2023-11-21T11:39:40;100325.72;;;10.35;100.00
32131;BME280;18639;50.716;7.086;2023-11-21T11:42:12;100348.09;;;10.49;100.00
32131;BME280;18639;50.716;7.086;2023-11-21T11:52:46;100386.69;;;10.65;100.00
32131;BME280;18639;50.716;7.086;2023-11-21T11:55:20;100378.06;;;10.51;100.00
32131;BME280;18639;50.716;7.086;2023-11-21T11:57:48;100376.59;;;10.47;100.00
32131;BME280;18639;50.716;7.086;2023-11-21T12:02:55;100383.03;;;10.54;100.00
32131;BME280;18639;50.716;7.086;2023-11-21T12:05:26;100381.50;;;10.52;100.00
32131;BME280;18639;50.716;7.086;2023-11-21T12:07:57;100369.25;;;10.41;100.00
32131;BME280;18639;50.716;7.086;2023-11-21T12:10:25;100354.63;;;10.28;100.00
32131;BME280;18639;50.716;7.086;2023-11-21T12:13:02;100379.91;;;10.49;100.00
32131;BME280;18639;50.716;7.086;2023-11-21T12:15:27;100344.88;;;10.19;100.00
32131;BME280;18639;50.716;7.086;2023-11-21T12:17:56;100387.28;;;10.55;100.00
32131;BME280;18639;50.716;7.086;2023-11-21T12:20:24;100382.84;;;10.58;100.00
32131;BME280;18639;50.716;7.086;2023-11-21T12:22:54;100374.97;;;10.59;100.00
32131;BME280;18639;50.716;7.086;2023-11-21T12:25:27;100392.38;;;10.70;100.00
32131;BME280;18639;50.716;7.086;2023-11-21T12:28:00;100387.34;;;10.68;100.00
32131;BME280;18639;50.716;7.086;2023-11-21T12:30:28;100367.44;;;10.56;100.00
32131;BME280;18639;50.716;7.086;2023-11-21T12:32:56;100361.63;;;10.52;100.00
32131;BME280;18639;50.716;7.086;2023-11-21T12:35:25;100408.25;;;10.78;100.00
32131;BME280;18639;50.716;7.086;2023-11-21T12:37:54;100407.31;;;10.79;100.00
32131;BME280;18639;50.716;7.086;2023-11-21T12:40:22;100397.56;;;10.70;100.00
32131;BME280;18639;50.716;7.086;2023-11-21T12:42:49;100400.50;;;10.78;100.00
32131;BME280;18639;50.716;7.086;2023-11-21T12:45:22;100368.44;;;10.53;100.00
32131;BME280;18639;50.716;7.086;2023-11-21T12:47:51;100383.38;;;10.63;100.00
32131;BME280;18639;50.716;7.086;2023-11-21T12:50:21;100411.53;;;10.80;100.00
32131;BME280;18639;50.716;7.086;2023-11-21T12:52:53;100420.44;;;10.76;100.00
32131;BME280;18639;50.716;7.086;2023-11-21T12:55:20;100425.31;;;10.80;100.00
32131;BME280;18639;50.716;7.086;2023-11-21T12:57:54;100411.13;;;10.73;100.00
32131;BME280;18639;50.716;7.086;2023-11-21T13:00:27;100419.75;;;10.86;100.00
32131;BME280;18639;50.716;7.086;2023-11-21T13:02:54;100410.63;;;10.81;100.00
32131;BME280;18639;50.716;7.086;2023-11-21T13:05:28;100428.94;;;10.90;100.00
32131;BME280;18639;50.716;7.086;2023-11-21T13:07:59;100412.28;;;10.82;100.00
32131;BME280;18639;50.716;7.086;2023-11-21T13:10:27;100408.00;;;10.68;100.00
32131;BME280;18639;50.716;7.086;2023-11-21T13:13:00;100425.31;;;10.80;100.00
32131;BME280;18639;50.716;7.086;2023-11-21T13:15:27;100425.31;;;10.80;100.00
32131;BME280;18639;50.716;7.086;2023-11-21T13:17:52;100429.31;;;10.72;100.00
32131;BME280;18639;50.716;7.086;2023-11-21T13:20:19;100412.53;;;10.65;100.00